Time;durP1;ratioP1;P1;durP2;ratioP2;P2;SDS_P1;SDS_P2;PMS_P1;PMS_P2;Temp;Humidity;BMP_temperature;BMP_pressure;BME280_temperature;BME280_humidity;BME280_pressure;Samples;Min_cycle;Max_cycle;Signal;HPM_P1;HPM_P2
2023/09/12 00:00:54;;;;;;;1.00;1.00;;;19.70;99.90;;;;;;5005112;28;20056;-72
2023/09/12 00:03:21;;;;;;;0.40;0.40;;;19.70;99.90;;;;;;4996610;28;20478;-71
2023/09/12 00:05:57;;;;;;;0.40;0.40;;;19.70;99.90;;;;;;5013149;28;20414;-72
2023/09/12 00:08:24;;;;;;;0.40;0.40;;;19.70;99.90;;;;;;5027521;28;20701;-72
2023/09/12 00:11:02;;;;;;;1.48;1.13;;;19.70;99.90;;;;;;5012210;28;20045;-72
2023/09/12 00:13:29;;;;;;;0.50;0.50;;;19.70;99.90;;;;;;5011385;28;20065;-71
2023/09/12 00:15:56;;;;;;;0.60;0.60;;;19.60;99.90;;;;;;5012500;28;20556;-71
2023/09/12 00:18:22;;;;;;;0.88;0.88;;;19.60;99.90;;;;;;5011892;28;20494;-72
2023/09/12 00:20:48;;;;;;;0.95;0.95;;;19.70;99.90;;;;;;5010732;28;20139;-72
2023/09/12 00:23:13;;;;;;;0.80;0.80;;;19.60;99.90;;;;;;5010802;28;20049;-72
2023/09/12 00:25:39;;;;;;;1.15;1.05;;;19.60;99.90;;;;;;5028298;28;20046;-72
2023/09/12 00:28:04;;;;;;;0.40;0.40;;;19.60;99.90;;;;;;5011607;28;20415;-72
2023/09/12 00:30:30;;;;;;;0.38;0.38;;;19.60;99.90;;;;;;5014415;28;20045;-71
2023/09/12 00:32:56;;;;;;;0.57;0.57;;;19.60;99.90;;;;;;5010604;28;20054;-72
2023/09/12 00:35:21;;;;;;;0.60;0.60;;;19.60;99.90;;;;;;5009990;28;20494;-72
2023/09/12 00:37:47;;;;;;;0.47;0.47;;;19.60;99.90;;;;;;5007882;28;20478;-72
2023/09/12 00:40:13;;;;;;;0.75;0.65;;;19.60;99.90;;;;;;5014548;28;20521;-72
2023/09/12 00:42:38;;;;;;;0.45;0.45;;;19.60;99.90;;;;;;5011078;28;20383;-72
2023/09/12 00:45:04;;;;;;;0.32;0.32;;;19.50;99.90;;;;;;5010139;28;20042;-72
2023/09/12 00:47:31;;;;;;;0.50;0.50;;;19.50;99.90;;;;;;5014421;28;20045;-72
2023/09/12 00:49:59;;;;;;;0.75;0.75;;;19.50;99.90;;;;;;5009845;28;20045;-72
2023/09/12 00:52:26;;;;;;;0.55;0.43;;;19.50;99.90;;;;;;5030556;28;20045;-72
2023/09/12 00:54:52;;;;;;;0.53;0.53;;;19.50;99.90;;;;;;5015580;28;20057;-72
2023/09/12 00:57:19;;;;;;;0.70;0.70;;;19.60;99.90;;;;;;5009966;28;20041;-72
2023/09/12 00:59:45;;;;;;;0.60;0.60;;;19.50;99.90;;;;;;5017066;28;20052;-72
2023/09/12 01:02:10;;;;;;;0.82;0.82;;;19.50;99.90;;;;;;5007561;28;20066;-72
2023/09/12 01:04:37;;;;;;;0.57;0.57;;;19.40;99.90;;;;;;5012124;28;20056;-72
2023/09/12 01:07:04;;;;;;;1.33;1.33;;;19.40;99.90;;;;;;5011987;28;20399;-71
2023/09/12 01:09:31;;;;;;;0.60;0.60;;;19.40;99.90;;;;;;5008357;28;20391;-72
2023/09/12 01:11:57;;;;;;;0.40;0.40;;;19.30;99.90;;;;;;5021291;28;20387;-72
2023/09/12 01:14:23;;;;;;;0.60;0.60;;;19.40;99.90;;;;;;5009616;28;20056;-71
2023/09/12 01:16:49;;;;;;;1.08;1.05;;;19.30;99.90;;;;;;5009409;28;20410;-71
2023/09/12 01:19:16;;;;;;;0.40;0.40;;;19.30;99.90;;;;;;5026021;28;20079;-71
2023/09/12 01:22:17;;;;;;;0.30;0.30;;;19.30;99.90;;;;;;5010019;28;20076;-72
2023/09/12 01:24:59;;;;;;;0.98;0.98;;;19.30;99.90;;;;;;4945133;28;20153;-71
2023/09/12 01:27:32;;;;;;;0.35;0.35;;;19.30;99.90;;;;;;5008451;28;20106;-72
2023/09/12 01:30:07;;;;;;;0.40;0.40;;;19.30;99.90;;;;;;5006916;28;20566;-72
2023/09/12 01:32:34;;;;;;;0.43;0.43;;;19.40;99.90;;;;;;5026612;28;20464;-72
2023/09/12 01:35:00;;;;;;;0.53;0.53;;;19.40;99.90;;;;;;5009362;28;20049;-72
2023/09/12 01:37:26;;;;;;;0.38;0.38;;;19.30;99.90;;;;;;5025543;28;21006;-72
2023/09/12 01:39:52;;;;;;;0.30;0.30;;;19.30;99.90;;;;;;5007988;28;20053;-72
2023/09/12 01:42:20;;;;;;;0.25;0.25;;;19.30;99.90;;;;;;5025763;28;20544;-72
2023/09/12 01:44:49;;;;;;;0.55;0.55;;;19.30;99.90;;;;;;5008018;28;20495;-72
2023/09/12 01:47:16;;;;;;;0.60;0.43;;;19.20;99.90;;;;;;5009457;28;20056;-72
2023/09/12 01:49:45;;;;;;;1.00;0.88;;;19.20;99.90;;;;;;5004642;28;20137;-72
2023/09/12 01:52:11;;;;;;;0.40;0.40;;;19.20;99.90;;;;;;5006326;28;20077;-72
2023/09/12 01:54:37;;;;;;;0.35;0.35;;;19.10;99.90;;;;;;5007004;28;20600;-72
2023/09/12 01:57:04;;;;;;;0.68;0.68;;;19.10;99.90;;;;;;5007979;28;20055;-72
2023/09/12 01:59:30;;;;;;;0.20;0.20;;;19.00;99.90;;;;;;5026435;28;20128;-71
2023/09/12 02:01:55;;;;;;;0.45;0.45;;;18.90;99.90;;;;;;5010908;28;20057;-72
2023/09/12 02:04:21;;;;;;;1.00;0.85;;;18.90;99.90;;;;;;5011331;28;20073;-72
2023/09/12 02:06:47;;;;;;;0.70;0.70;;;18.80;99.90;;;;;;5009087;28;20037;-71
2023/09/12 02:09:12;;;;;;;0.57;0.57;;;18.80;99.90;;;;;;5009314;28;20042;-72
2023/09/12 02:11:38;;;;;;;0.45;0.45;;;18.80;99.90;;;;;;5027231;28;20053;-72
2023/09/12 02:14:04;;;;;;;0.50;0.50;;;18.80;99.90;;;;;;5004417;28;20050;-72
2023/09/12 02:16:31;;;;;;;1.02;1.02;;;18.80;99.90;;;;;;5007970;28;20042;-72
2023/09/12 02:18:57;;;;;;;0.43;0.43;;;18.80;99.90;;;;;;5000761;28;20053;-71
2023/09/12 02:21:22;;;;;;;4.95;1.00;;;18.70;99.90;;;;;;5009095;28;20121;-71
2023/09/12 02:23:48;;;;;;;1.15;1.15;;;18.70;99.90;;;;;;5026377;28;20746;-71
2023/09/12 02:26:14;;;;;;;0.50;0.50;;;18.70;99.90;;;;;;5005781;28;20121;-71
2023/09/12 02:28:39;;;;;;;0.45;0.45;;;18.70;99.90;;;;;;5003382;28;20124;-71
2023/09/12 02:31:11;;;;;;;0.88;0.88;;;18.70;99.90;;;;;;5006027;28;20048;-71
2023/09/12 02:33:38;;;;;;;0.35;0.35;;;18.70;99.90;;;;;;5005365;28;20529;-71
2023/09/12 02:36:04;;;;;;;0.45;0.45;;;18.70;99.90;;;;;;5003182;28;20120;-71
2023/09/12 02:38:29;;;;;;;1.23;0.70;;;18.70;99.90;;;;;;5010195;28;20056;-71
2023/09/12 02:40:55;;;;;;;0.57;0.57;;;18.70;99.90;;;;;;5022558;28;20438;-71
2023/09/12 02:43:21;;;;;;;0.63;0.63;;;18.70;99.90;;;;;;5006734;28;20042;-71
2023/09/12 02:45:47;;;;;;;0.63;0.60;;;18.80;99.90;;;;;;5003499;28;20681;-72
2023/09/12 02:48:13;;;;;;;0.30;0.30;;;18.70;99.90;;;;;;5030426;28;20115;-71
2023/09/12 02:50:38;;;;;;;1.23;0.55;;;18.70;99.90;;;;;;5011385;28;20045;-72
2023/09/12 02:53:06;;;;;;;0.68;0.68;;;18.70;99.90;;;;;;5000858;28;20136;-72
2023/09/12 02:55:32;;;;;;;0.60;0.60;;;18.70;99.90;;;;;;5006343;28;20046;-72
2023/09/12 02:57:58;;;;;;;0.50;0.50;;;18.70;99.90;;;;;;5023969;28;20457;-71
2023/09/12 03:00:24;;;;;;;0.52;0.52;;;18.70;99.90;;;;;;5005228;28;20064;-71
2023/09/12 03:02:50;;;;;;;0.60;0.60;;;18.70;99.90;;;;;;4997150;28;20173;-71
2023/09/12 03:05:16;;;;;;;0.43;0.43;;;18.70;99.90;;;;;;4993363;28;20810;-71
2023/09/12 03:07:42;;;;;;;0.45;0.45;;;18.70;99.90;;;;;;5003889;28;20173;-71
2023/09/12 03:10:08;;;;;;;0.50;0.50;;;18.70;99.90;;;;;;5015970;28;20049;-72
2023/09/12 03:12:36;;;;;;;0.30;0.30;;;18.70;99.90;;;;;;5030066;28;20103;-72
2023/09/12 03:15:02;;;;;;;0.22;0.22;;;18.70;99.90;;;;;;5020142;28;20053;-72
2023/09/12 03:17:28;;;;;;;0.95;0.95;;;18.70;99.90;;;;;;5029844;28;20164;-72
2023/09/12 03:19:54;;;;;;;0.90;0.90;;;18.70;99.90;;;;;;5011484;28;20053;-71
2023/09/12 03:22:20;;;;;;;0.98;0.98;;;18.70;99.90;;;;;;5023941;28;20969;-71
2023/09/12 03:24:45;;;;;;;1.35;0.57;;;18.70;99.90;;;;;;5027744;28;20048;-71
2023/09/12 03:27:11;;;;;;;0.47;0.47;;;18.70;99.90;;;;;;5006153;28;20677;-71
2023/09/12 03:29:37;;;;;;;0.65;0.65;;;18.70;99.90;;;;;;5014058;28;20053;-71
2023/09/12 03:32:03;;;;;;;1.05;1.05;;;18.70;99.90;;;;;;5015307;28;20050;-72
2023/09/12 03:34:29;;;;;;;0.55;0.55;;;18.70;99.90;;;;;;5029724;28;20045;-71
2023/09/12 03:36:54;;;;;;;0.60;0.60;;;18.70;99.90;;;;;;5029277;28;20481;-72
2023/09/12 03:39:20;;;;;;;0.93;0.93;;;18.60;99.90;;;;;;5024073;28;20057;-72
2023/09/12 03:41:46;;;;;;;1.00;1.00;;;18.60;99.90;;;;;;5010865;28;20054;-71
2023/09/12 03:44:11;;;;;;;0.32;0.32;;;18.60;99.90;;;;;;5011532;28;20764;-71
2023/09/12 03:46:37;;;;;;;0.40;0.40;;;18.60;99.90;;;;;;5030169;28;20083;-71
2023/09/12 03:49:03;;;;;;;3.38;0.85;;;18.60;99.90;;;;;;5028706;28;20053;-71
2023/09/12 03:51:29;;;;;;;0.93;0.93;;;18.50;99.90;;;;;;5011531;28;20502;-71
2023/09/12 03:53:54;;;;;;;0.60;0.55;;;18.50;99.90;;;;;;5012950;28;20132;-71
2023/09/12 03:56:20;;;;;;;0.52;0.52;;;18.50;99.90;;;;;;5023171;28;20046;-71
2023/09/12 03:58:46;;;;;;;0.38;0.38;;;18.50;99.90;;;;;;5012510;28;20054;-71
2023/09/12 04:01:11;;;;;;;0.30;0.30;;;18.50;99.90;;;;;;5010611;28;20053;-71
2023/09/12 04:03:37;;;;;;;0.25;0.25;;;18.50;99.90;;;;;;5011865;28;20418;-71
2023/09/12 04:06:03;;;;;;;0.52;0.52;;;18.60;99.90;;;;;;5007055;28;20084;-72
2023/09/12 04:08:29;;;;;;;0.30;0.30;;;18.60;99.90;;;;;;5011488;28;20132;-71
2023/09/12 04:10:54;;;;;;;0.60;0.60;;;18.50;99.90;;;;;;5010885;28;20453;-71
2023/09/12 04:13:20;;;;;;;0.30;0.30;;;18.50;99.90;;;;;;5028348;28;20073;-71
2023/09/12 04:15:45;;;;;;;0.73;0.68;;;18.50;99.90;;;;;;5030766;28;20038;-72
2023/09/12 04:18:11;;;;;;;0.47;0.47;;;18.50;99.90;;;;;;5025599;28;20482;-71
2023/09/12 04:20:37;;;;;;;0.50;0.50;;;18.50;99.90;;;;;;5005037;28;20451;-71
2023/09/12 04:23:03;;;;;;;0.63;0.63;;;18.50;99.90;;;;;;5005071;28;20038;-71
2023/09/12 04:25:30;;;;;;;0.80;0.80;;;18.40;99.90;;;;;;5010624;28;20049;-71
2023/09/12 04:27:56;;;;;;;0.63;0.40;;;18.50;99.90;;;;;;5011007;28;20552;-71
2023/09/12 04:30:21;;;;;;;1.10;0.50;;;18.40;99.90;;;;;;4990040;28;20054;-71
2023/09/12 04:32:47;;;;;;;0.40;0.40;;;18.50;99.90;;;;;;5008299;28;20045;-71
2023/09/12 04:35:13;;;;;;;0.28;0.28;;;18.50;99.90;;;;;;5026832;28;20136;-71
2023/09/12 04:37:39;;;;;;;0.30;0.30;;;18.50;99.90;;;;;;5010977;28;20049;-72
2023/09/12 04:40:06;;;;;;;0.40;0.40;;;18.40;99.90;;;;;;5010393;28;20079;-71
2023/09/12 04:42:32;;;;;;;0.35;0.35;;;18.50;99.90;;;;;;5014148;28;20095;-72
2023/09/12 04:44:58;;;;;;;0.35;0.35;;;18.40;99.90;;;;;;5010839;28;20057;-71
2023/09/12 04:47:23;;;;;;;5.13;1.17;;;18.40;99.90;;;;;;5026943;28;20057;-71
2023/09/12 04:49:49;;;;;;;0.55;0.55;;;18.40;99.90;;;;;;5027682;28;20120;-72
2023/09/12 04:52:15;;;;;;;0.63;0.63;;;18.40;99.90;;;;;;5010523;28;20433;-72
2023/09/12 04:54:41;;;;;;;0.70;0.70;;;18.40;99.90;;;;;;4993737;28;20149;-71
2023/09/12 04:57:08;;;;;;;1.13;1.13;;;18.40;99.90;;;;;;5011073;28;20136;-71
2023/09/12 04:59:33;;;;;;;0.52;0.52;;;18.40;99.90;;;;;;5027722;28;20045;-71
2023/09/12 05:01:59;;;;;;;0.47;0.47;;;18.40;99.90;;;;;;5010150;28;20052;-71
2023/09/12 05:04:24;;;;;;;0.45;0.45;;;18.40;99.90;;;;;;5026913;28;20057;-71
2023/09/12 05:06:50;;;;;;;0.40;0.40;;;18.40;99.90;;;;;;5023526;28;20601;-71
2023/09/12 05:09:16;;;;;;;0.30;0.30;;;18.40;99.90;;;;;;4992583;28;20041;-71
2023/09/12 05:11:42;;;;;;;0.65;0.65;;;18.40;99.90;;;;;;5029523;28;20049;-71
2023/09/12 05:14:07;;;;;;;0.55;0.55;;;18.40;99.90;;;;;;5010560;28;20132;-71
2023/09/12 05:16:33;;;;;;;0.40;0.40;;;18.40;99.90;;;;;;5008802;28;20166;-72
2023/09/12 05:18:59;;;;;;;0.50;0.50;;;18.30;99.90;;;;;;5008587;28;20125;-71
2023/09/12 05:21:24;;;;;;;0.47;0.47;;;18.30;99.90;;;;;;5026527;28;20726;-71
2023/09/12 05:23:50;;;;;;;1.45;1.35;;;18.40;99.90;;;;;;5012003;28;20108;-71
2023/09/12 05:26:16;;;;;;;0.43;0.43;;;18.30;99.90;;;;;;5009398;28;20072;-71
2023/09/12 05:28:41;;;;;;;0.70;0.70;;;18.40;99.90;;;;;;5027935;28;20045;-71
2023/09/12 05:31:07;;;;;;;0.35;0.35;;;18.30;99.90;;;;;;5023164;28;20077;-72
2023/09/12 05:33:32;;;;;;;0.40;0.40;;;18.30;99.90;;;;;;5009162;28;20833;-72
2023/09/12 05:35:58;;;;;;;0.35;0.35;;;18.30;99.90;;;;;;5018187;28;20073;-72
2023/09/12 05:38:24;;;;;;;0.20;0.20;;;18.30;99.90;;;;;;5008043;28;20112;-73
2023/09/12 05:40:49;;;;;;;0.60;0.60;;;18.30;99.90;;;;;;5023648;28;20049;-72
2023/09/12 05:43:16;;;;;;;0.40;0.40;;;18.30;99.90;;;;;;5009484;28;20053;-72
2023/09/12 05:45:42;;;;;;;0.30;0.30;;;18.30;99.90;;;;;;5027457;28;20049;-72
2023/09/12 05:48:09;;;;;;;0.43;0.43;;;18.30;99.90;;;;;;5006459;28;20049;-73
2023/09/12 05:50:36;;;;;;;1.17;1.10;;;18.30;99.90;;;;;;5019529;28;20095;-73
2023/09/12 05:53:02;;;;;;;3.00;2.00;;;18.20;99.90;;;;;;5027028;28;20564;-73
2023/09/12 05:55:27;;;;;;;0.75;0.75;;;18.20;99.90;;;;;;5008304;28;20073;-73
2023/09/12 05:57:53;;;;;;;1.13;1.13;;;18.20;99.90;;;;;;5008000;28;20144;-73
2023/09/12 06:00:20;;;;;;;0.50;0.50;;;18.20;99.90;;;;;;5007792;28;20053;-72
2023/09/12 06:02:47;;;;;;;0.73;0.73;;;18.20;99.90;;;;;;5007743;28;20057;-73
2023/09/12 06:05:14;;;;;;;2.05;0.75;;;18.20;99.90;;;;;;5025511;28;20128;-73
2023/09/12 06:07:40;;;;;;;0.38;0.38;;;18.30;99.90;;;;;;5009360;28;20069;-73
2023/09/12 06:10:07;;;;;;;0.70;0.70;;;18.30;99.90;;;;;;5030167;28;21360;-73
2023/09/12 06:12:32;;;;;;;0.60;0.60;;;18.30;99.90;;;;;;5025327;28;20482;-73
2023/09/12 06:14:59;;;;;;;0.68;0.68;;;18.30;99.90;;;;;;5008389;28;20068;-73
2023/09/12 06:17:25;;;;;;;0.38;0.38;;;18.40;99.90;;;;;;5003246;28;20046;-73
2023/09/12 06:19:51;;;;;;;0.47;0.47;;;18.40;99.90;;;;;;5007090;28;20054;-73
2023/09/12 06:22:17;;;;;;;0.30;0.30;;;18.40;99.90;;;;;;5025842;28;20331;-73
2023/09/12 06:24:43;;;;;;;0.75;0.75;;;18.50;99.90;;;;;;5022791;28;20037;-72
2023/09/12 06:27:12;;;;;;;0.50;0.50;;;18.50;99.90;;;;;;5010242;28;20064;-73
2023/09/12 06:29:38;;;;;;;0.73;0.73;;;18.60;99.90;;;;;;5010266;28;20088;-73
2023/09/12 06:32:04;;;;;;;0.68;0.68;;;18.60;99.90;;;;;;5011995;28;20182;-73
2023/09/12 06:34:29;;;;;;;0.73;0.60;;;18.60;99.90;;;;;;5005856;28;20042;-73
2023/09/12 06:36:55;;;;;;;0.63;0.55;;;18.70;99.90;;;;;;5009977;28;20443;-73
2023/09/12 06:39:21;;;;;;;1.48;1.38;;;18.70;99.90;;;;;;5026810;28;20045;-73
2023/09/12 06:41:46;;;;;;;0.90;0.90;;;18.70;99.90;;;;;;5001681;28;20085;-73
2023/09/12 06:44:12;;;;;;;0.50;0.50;;;18.70;99.90;;;;;;5010186;28;20132;-73
2023/09/12 06:46:38;;;;;;;0.47;0.47;;;18.80;99.90;;;;;;5012226;28;20081;-73
2023/09/12 06:49:04;;;;;;;0.73;0.73;;;18.80;99.90;;;;;;5008764;28;20061;-73
2023/09/12 06:51:30;;;;;;;0.45;0.45;;;18.80;99.90;;;;;;5008293;28;20124;-73
2023/09/12 06:53:55;;;;;;;1.27;1.17;;;18.90;99.90;;;;;;5011923;28;20077;-73
2023/09/12 06:56:21;;;;;;;0.73;0.73;;;18.90;99.90;;;;;;5018256;28;20120;-73
2023/09/12 06:58:48;;;;;;;0.77;0.77;;;19.00;99.90;;;;;;5029634;28;20061;-73
2023/09/12 07:01:13;;;;;;;0.55;0.55;;;19.00;99.90;;;;;;5007668;28;20053;-73
2023/09/12 07:03:39;;;;;;;0.50;0.50;;;19.10;99.90;;;;;;5008666;28;20099;-73
2023/09/12 07:06:05;;;;;;;0.85;0.85;;;19.10;99.90;;;;;;5003039;28;20060;-73
2023/09/12 07:08:31;;;;;;;0.60;0.60;;;19.10;99.90;;;;;;5012562;28;20108;-73
2023/09/12 07:10:59;;;;;;;1.17;0.93;;;19.20;99.90;;;;;;5011522;28;20046;-73
2023/09/12 07:13:25;;;;;;;1.60;1.50;;;19.20;99.90;;;;;;5014364;28;20068;-73
2023/09/12 07:15:51;;;;;;;1.42;1.33;;;19.20;99.90;;;;;;5010639;28;20092;-73
2023/09/12 07:18:18;;;;;;;0.85;0.85;;;19.20;99.90;;;;;;5008846;28;20064;-73
2023/09/12 07:20:43;;;;;;;2.47;1.45;;;19.30;99.90;;;;;;5006582;28;20508;-73
2023/09/12 07:23:09;;;;;;;1.13;1.13;;;19.30;99.90;;;;;;4998843;28;20049;-73
2023/09/12 07:25:40;;;;;;;0.47;0.47;;;19.30;99.90;;;;;;5011256;28;20104;-73
2023/09/12 07:28:07;;;;;;;1.35;0.73;;;19.40;99.90;;;;;;4997885;28;20452;-73
2023/09/12 07:30:32;;;;;;;0.40;0.40;;;19.40;99.90;;;;;;5013396;28;20115;-73
2023/09/12 07:32:58;;;;;;;1.10;1.08;;;19.50;99.90;;;;;;5012056;28;20167;-73
2023/09/12 07:35:24;;;;;;;0.50;0.50;;;19.50;99.90;;;;;;4993151;28;20057;-73
2023/09/12 07:37:50;;;;;;;0.57;0.57;;;19.50;99.90;;;;;;4994240;28;20053;-73
2023/09/12 07:40:16;;;;;;;0.40;0.40;;;19.60;99.90;;;;;;5000372;28;20053;-73
2023/09/12 07:42:41;;;;;;;1.70;1.60;;;19.60;99.90;;;;;;5003733;28;20037;-73
2023/09/12 07:45:08;;;;;;;1.20;0.90;;;19.60;99.90;;;;;;5025434;28;20041;-73
2023/09/12 07:47:33;;;;;;;0.90;0.90;;;19.60;99.90;;;;;;5006551;28;20049;-73
2023/09/12 07:50:00;;;;;;;0.45;0.45;;;19.60;99.90;;;;;;5010815;28;20911;-73
2023/09/12 07:52:26;;;;;;;1.40;1.30;;;19.60;99.90;;;;;;5011209;28;20053;-73
2023/09/12 07:54:56;;;;;;;0.90;0.90;;;19.60;99.90;;;;;;5011945;28;20045;-72
2023/09/12 07:57:23;;;;;;;1.67;1.08;;;19.70;99.90;;;;;;5029638;28;20049;-72
2023/09/12 07:59:49;;;;;;;0.82;0.82;;;19.80;99.90;;;;;;5006342;28;20081;-73
2023/09/12 08:02:14;;;;;;;0.77;0.77;;;19.80;99.90;;;;;;5025413;28;20080;-72
2023/09/12 08:04:40;;;;;;;0.57;0.57;;;19.80;99.90;;;;;;5009086;28;20081;-71
2023/09/12 08:07:06;;;;;;;0.82;0.77;;;19.80;99.90;;;;;;5009221;28;20061;-71
2023/09/12 08:09:57;;;;;;;0.70;0.70;;;19.90;99.90;;;;;;5008091;28;20048;-72
2023/09/12 08:12:24;;;;;;;0.95;0.88;;;20.00;99.90;;;;;;5027438;28;20049;-72
2023/09/12 08:14:49;;;;;;;1.00;0.98;;;20.10;99.90;;;;;;5026450;28;20860;-71
2023/09/12 08:17:15;;;;;;;0.60;0.60;;;20.10;99.90;;;;;;5023760;28;20128;-72
2023/09/12 08:19:42;;;;;;;1.08;1.08;;;20.10;99.90;;;;;;5008842;28;20124;-71
2023/09/12 08:22:09;;;;;;;1.92;1.45;;;20.10;99.90;;;;;;5006884;28;20046;-71
2023/09/12 08:24:36;;;;;;;0.93;0.75;;;20.20;99.90;;;;;;5025803;28;20054;-71
2023/09/12 08:27:02;;;;;;;0.90;0.90;;;20.20;99.90;;;;;;5010239;28;20049;-70
2023/09/12 08:29:28;;;;;;;0.65;0.65;;;20.30;99.90;;;;;;5006795;28;20057;-71
2023/09/12 08:31:54;;;;;;;1.90;1.77;;;20.30;99.90;;;;;;5009125;28;20053;-70
2023/09/12 08:34:23;;;;;;;0.50;0.50;;;20.40;99.90;;;;;;5009705;28;20114;-71
2023/09/12 08:36:48;;;;;;;0.63;0.63;;;20.40;99.90;;;;;;5004050;28;20050;-71
2023/09/12 08:39:18;;;;;;;0.60;0.60;;;20.50;99.90;;;;;;5005871;28;20103;-71
2023/09/12 08:41:46;;;;;;;1.15;0.65;;;20.50;99.90;;;;;;5010724;28;20414;-71
2023/09/12 08:44:13;;;;;;;0.40;0.40;;;20.60;99.90;;;;;;5010918;28;20053;-70
2023/09/12 08:46:44;;;;;;;1.98;1.88;;;20.60;99.90;;;;;;5010870;28;20072;-70
2023/09/12 08:49:10;;;;;;;1.05;1.05;;;20.60;99.90;;;;;;5010711;28;20081;-71
2023/09/12 08:51:37;;;;;;;0.57;0.57;;;20.70;99.90;;;;;;4993728;28;20052;-70
2023/09/12 08:54:06;;;;;;;1.38;1.27;;;20.80;99.90;;;;;;5009892;28;20085;-71
2023/09/12 08:56:34;;;;;;;0.40;0.40;;;20.80;99.90;;;;;;5037487;28;20052;-70
2023/09/12 08:59:03;;;;;;;0.82;0.82;;;20.80;99.90;;;;;;5012574;28;20046;-71
2023/09/12 09:01:33;;;;;;;0.52;0.52;;;20.80;99.90;;;;;;5030313;28;20125;-71
2023/09/12 09:03:58;;;;;;;1.67;1.58;;;20.80;99.90;;;;;;5009793;28;20124;-71
2023/09/12 09:06:25;;;;;;;0.52;0.52;;;20.80;99.90;;;;;;5024437;28;20179;-71
2023/09/12 09:08:51;;;;;;;1.38;0.73;;;20.80;99.90;;;;;;5028340;28;20403;-71
2023/09/12 09:11:17;;;;;;;1.30;1.20;;;20.70;99.90;;;;;;4997254;28;20049;-71
2023/09/12 09:13:43;;;;;;;0.38;0.38;;;20.80;99.90;;;;;;5007409;28;20068;-71
2023/09/12 09:16:12;;;;;;;0.77;0.77;;;20.80;99.90;;;;;;5008665;28;20053;-71
2023/09/12 09:18:57;;;;;;;0.70;0.70;;;20.80;99.90;;;;;;5019622;28;20049;-71
2023/09/12 09:21:32;;;;;;;0.30;0.30;;;20.90;99.90;;;;;;5006813;28;20083;-71
2023/09/12 09:24:09;;;;;;;0.45;0.45;;;20.90;99.90;;;;;;5007698;28;20049;-71
2023/09/12 09:26:45;;;;;;;1.08;1.02;;;20.90;99.90;;;;;;5001084;28;20526;-71
2023/09/12 09:29:15;;;;;;;1.55;1.45;;;20.90;99.90;;;;;;5027645;28;20037;-71
2023/09/12 09:31:42;;;;;;;1.30;1.30;;;21.00;99.90;;;;;;5031558;28;20056;-71
2023/09/12 09:34:14;;;;;;;2.55;0.70;;;21.00;99.90;;;;;;5000739;28;20049;-72
2023/09/12 09:36:46;;;;;;;0.70;0.70;;;21.00;99.90;;;;;;5011280;28;20054;-71
2023/09/12 09:39:13;;;;;;;1.33;1.05;;;21.10;99.90;;;;;;4992809;28;20034;-72
2023/09/12 09:41:39;;;;;;;0.43;0.43;;;21.20;99.90;;;;;;5008265;28;20049;-71
2023/09/12 09:44:08;;;;;;;0.47;0.47;;;21.20;99.90;;;;;;5000537;28;20053;-71
2023/09/12 09:46:36;;;;;;;0.52;0.52;;;21.30;99.90;;;;;;5007056;28;20057;-72
2023/09/12 09:49:02;;;;;;;0.93;0.93;;;21.30;99.90;;;;;;5006092;28;20056;-72
2023/09/12 09:51:31;;;;;;;0.98;0.88;;;21.30;99.90;;;;;;5008110;28;20497;-71
2023/09/12 09:53:58;;;;;;;0.75;0.55;;;21.30;99.90;;;;;;5026402;28;20060;-72
2023/09/12 09:56:25;;;;;;;1.75;0.98;;;21.30;99.90;;;;;;5003267;28;20045;-71
2023/09/12 09:58:53;;;;;;;0.88;0.88;;;21.40;99.90;;;;;;5008209;28;20052;-72
2023/09/12 10:01:20;;;;;;;0.47;0.38;;;21.50;99.90;;;;;;5006784;28;20518;-71
2023/09/12 10:03:50;;;;;;;0.60;0.60;;;21.60;99.90;;;;;;5002323;28;20089;-72
2023/09/12 10:06:19;;;;;;;0.57;0.57;;;21.60;99.90;;;;;;5025392;28;20044;-72
2023/09/12 10:08:49;;;;;;;0.65;0.65;;;21.70;99.90;;;;;;5006031;28;20041;-72
2023/09/12 10:11:16;;;;;;;0.70;0.70;;;21.80;99.90;;;;;;5024523;28;20137;-71
2023/09/12 10:13:58;;;;;;;0.40;0.40;;;21.90;99.90;;;;;;5011480;28;20088;-71
2023/09/12 10:16:27;;;;;;;0.43;0.43;;;22.00;99.90;;;;;;5024413;28;20406;-72
2023/09/12 10:19:10;;;;;;;1.20;0.77;;;22.10;99.90;;;;;;5015039;28;20104;-72
2023/09/12 10:21:37;;;;;;;0.60;0.60;;;22.10;99.90;;;;;;5014469;28;20536;-72
2023/09/12 10:24:05;;;;;;;0.38;0.38;;;22.20;99.90;;;;;;5011801;28;20097;-72
2023/09/12 10:26:31;;;;;;;;;;;22.30;99.90;;;;;;5010466;28;20049;-71
2023/09/12 10:28:59;;;;;;;0.30;0.30;;;22.40;99.90;;;;;;5009082;28;19925;-71
2023/09/12 10:31:26;;;;;;;0.88;0.88;;;22.40;99.90;;;;;;5011207;28;20049;-71
2023/09/12 10:33:53;;;;;;;0.98;0.98;;;22.50;99.90;;;;;;5031396;28;20442;-71
2023/09/12 10:36:19;;;;;;;0.98;0.75;;;22.70;99.90;;;;;;5010949;28;20135;-71
2023/09/12 10:38:47;;;;;;;0.52;0.52;;;22.90;99.90;;;;;;5029395;28;20060;-72
2023/09/12 10:41:14;;;;;;;0.95;0.82;;;23.10;99.90;;;;;;5011755;28;20049;-72
2023/09/12 10:43:49;;;;;;;0.57;0.57;;;23.20;99.90;;;;;;5012420;28;20732;-71
2023/09/12 10:46:15;;;;;;;0.80;0.80;;;23.30;99.90;;;;;;5021921;28;20297;-72
2023/09/12 10:48:41;;;;;;;1.38;0.73;;;23.20;99.90;;;;;;5011872;28;20047;-72
2023/09/12 10:51:08;;;;;;;0.32;0.32;;;23.30;99.90;;;;;;5015361;28;20125;-72
2023/09/12 10:53:34;;;;;;;1.15;1.13;;;23.30;99.90;;;;;;5030187;28;20045;-71
2023/09/12 10:56:01;;;;;;;0.85;0.85;;;23.40;99.90;;;;;;5031725;28;20096;-72
2023/09/12 10:58:28;;;;;;;0.68;0.68;;;23.50;99.90;;;;;;5012716;28;20495;-72
2023/09/12 11:01:22;;;;;;;1.40;1.30;;;23.60;99.90;;;;;;5014886;28;20053;-71
2023/09/12 11:03:48;;;;;;;0.77;0.77;;;23.80;99.90;;;;;;5029938;28;20525;-71
2023/09/12 11:06:30;;;;;;;0.73;0.73;;;23.80;99.90;;;;;;5015201;28;20042;-72
2023/09/12 11:09:14;;;;;;;0.50;0.50;;;23.90;99.90;;;;;;5010471;28;20041;-71
2023/09/12 11:11:46;;;;;;;0.68;0.68;;;23.90;99.90;;;;;;5009870;28;20048;-72
2023/09/12 11:14:12;;;;;;;0.43;0.43;;;24.00;99.90;;;;;;5017541;28;20695;-72
2023/09/12 11:16:38;;;;;;;0.43;0.43;;;24.00;99.90;;;;;;5027441;28;20192;-73
2023/09/12 11:19:19;;;;;;;0.30;0.30;;;24.10;99.90;;;;;;5029531;28;20558;-71
2023/09/12 11:21:52;;;;;;;3.25;0.88;;;24.20;99.90;;;;;;5008697;28;20042;-72
2023/09/12 11:24:19;;;;;;;0.90;0.90;;;24.30;99.90;;;;;;4996770;28;20054;-72
2023/09/12 11:27:04;;;;;;;0.85;0.85;;;24.50;99.90;;;;;;5010610;28;20045;-72
2023/09/12 11:29:38;;;;;;;0.73;0.65;;;24.60;99.90;;;;;;5002126;28;20056;-71
2023/09/12 11:32:06;;;;;;;0.73;0.73;;;24.60;99.90;;;;;;5009927;28;20469;-72
2023/09/12 11:34:43;;;;;;;0.63;0.63;;;24.50;99.90;;;;;;5028042;28;20057;-71
2023/09/12 11:37:09;;;;;;;0.77;0.77;;;24.40;99.90;;;;;;5025166;28;20820;-71
2023/09/12 11:39:37;;;;;;;0.73;0.73;;;24.50;99.90;;;;;;5018565;28;20050;-71
2023/09/12 11:42:03;;;;;;;;;;;24.50;99.90;;;;;;5011454;28;20457;-71
2023/09/12 11:44:30;;;;;;;0.30;0.30;;;24.60;99.90;;;;;;5008157;28;19961;-71
2023/09/12 11:47:03;;;;;;;0.55;0.45;;;24.70;99.90;;;;;;5015004;28;20894;-72
2023/09/12 11:49:40;;;;;;;0.82;0.50;;;24.70;99.90;;;;;;5022262;28;20046;-71
2023/09/12 11:52:12;;;;;;;0.43;0.43;;;24.80;99.90;;;;;;5002274;28;20050;-71
2023/09/12 11:54:38;;;;;;;0.88;0.88;;;24.90;99.90;;;;;;5017566;28;20037;-71
2023/09/12 11:57:04;;;;;;;2.38;1.13;;;24.90;99.90;;;;;;5033002;28;20049;-71
2023/09/12 11:59:30;;;;;;;0.40;0.40;;;24.90;99.90;;;;;;5003589;28;20042;-71
2023/09/12 12:01:56;;;;;;;0.52;0.52;;;25.00;99.90;;;;;;5029170;28;20477;-71
2023/09/12 12:04:23;;;;;;;2.15;2.05;;;25.10;99.90;;;;;;5027854;28;20517;-71
2023/09/12 12:06:51;;;;;;;1.50;1.50;;;25.20;99.90;;;;;;5028131;28;20132;-71
2023/09/12 12:09:21;;;;;;;0.70;0.70;;;25.20;99.90;;;;;;5024358;28;20061;-72
2023/09/12 12:11:47;;;;;;;0.63;0.63;;;25.10;99.90;;;;;;5008868;28;20053;-71
2023/09/12 12:14:19;;;;;;;0.60;0.60;;;25.10;99.90;;;;;;5025204;28;20408;-71
2023/09/12 12:16:46;;;;;;;1.15;1.15;;;25.10;99.90;;;;;;5028386;28;20522;-71
2023/09/12 12:19:14;;;;;;;0.52;0.52;;;25.10;99.90;;;;;;5024986;28;20076;-71
2023/09/12 12:21:41;;;;;;;0.52;0.52;;;25.10;99.90;;;;;;5028878;28;20627;-71
2023/09/12 12:24:16;;;;;;;0.90;0.90;;;25.10;99.90;;;;;;5011514;28;20083;-71
2023/09/12 12:26:45;;;;;;;1.00;0.95;;;25.10;99.90;;;;;;5011278;28;20044;-71
2023/09/12 12:29:11;;;;;;;0.60;0.60;;;25.20;99.90;;;;;;5028862;28;20115;-71
2023/09/12 12:31:37;;;;;;;0.55;0.55;;;25.30;99.90;;;;;;5011386;28;20168;-71
2023/09/12 12:34:05;;;;;;;0.70;0.70;;;25.30;99.90;;;;;;5024626;28;20102;-71
2023/09/12 12:36:31;;;;;;;1.13;1.10;;;25.30;99.90;;;;;;5009626;28;20045;-71
2023/09/12 12:38:58;;;;;;;1.30;1.20;;;25.30;99.90;;;;;;5029175;28;20045;-71
2023/09/12 12:41:25;;;;;;;0.43;0.43;;;25.40;99.90;;;;;;5021953;28;20125;-71
2023/09/12 12:43:52;;;;;;;0.75;0.75;;;25.40;99.90;;;;;;5011086;28;20516;-71
2023/09/12 12:46:21;;;;;;;1.00;1.00;;;25.40;99.90;;;;;;5024113;28;20108;-70
2023/09/12 12:48:47;;;;;;;1.13;1.13;;;25.50;99.90;;;;;;5028209;28;20030;-71